Vozega, Russia
Current Conditions -  °F | °C
As of 12:30 AM on Friday 28 Nov 2014 (Local Time) from ULWC Reporting Station
Haze Haze  
Wind Chill: 17°   Ceiling: 200
Heat Index: 25°   Visibility: 3mi
Dew Point: 25°   Wind: 7mph
Humidity: 100%   Direction: 230°SW
Pressure: 30.48"   Gusts: NA
Location:  60.47°N, 40.2°E
Report Text: ULWC 272130Z 23003MPS 5000 BR OVC002 M04/M04 Q1032 TEMPO 2000BR BKN003 RMK QBB070 QFE764/1019 SC042
Loading
Personal Weather Stations






























Interactive Weather Map New forecast layout! Learn more

10-Day Weather Forecast

Advertisements
Track Severe Weather on mobile